Time;durP1;ratioP1;P1;durP2;ratioP2;P2;SDS_P1;SDS_P2;PMS_P1;PMS_P2;Temp;Humidity;BMP_temperature;BMP_pressure;BME280_temperature;BME280_humidity;BME280_pressure;Samples;Min_cycle;Max_cycle;Signal;HPM_P1;HPM_P2
2021/10/10 00:01:36;;;;;;;7.97;7.27;;;;;;;4.19;92.88;96436.00;5011622;28;20258;-73
2021/10/10 00:04:04;;;;;;;11.30;8.80;;;;;;;4.17;93.10;96437.91;5023681;28;20723;-72
2021/10/10 00:06:32;;;;;;;13.47;10.23;;;;;;;4.16;93.23;96436.25;5025025;28;20293;-74
2021/10/10 00:09:00;;;;;;;10.13;9.13;;;;;;;4.14;93.20;96432.97;5020536;28;20207;-74
2021/10/10 00:11:28;;;;;;;10.27;9.27;;;;;;;4.12;93.32;96440.09;5018824;28;20231;-72
2021/10/10 00:13:56;;;;;;;8.33;7.53;;;;;;;4.10;93.58;96441.97;5012473;28;20237;-72
2021/10/10 00:16:24;;;;;;;8.60;6.67;;;;;;;4.07;93.94;96437.00;5007832;28;20460;-72
2021/10/10 00:18:54;;;;;;;8.90;8.10;;;;;;;4.05;93.76;96438.94;5018338;28;20214;-73
2021/10/10 00:21:22;;;;;;;6.73;6.13;;;;;;;4.02;94.05;96439.16;5020944;28;20239;-73
2021/10/10 00:23:50;;;;;;;9.03;8.33;;;;;;;3.99;94.05;96428.97;5025006;28;20320;-69
2021/10/10 00:26:18;;;;;;;8.57;7.47;;;;;;;3.97;93.72;96430.88;5009960;28;20326;-73
2021/10/10 00:28:46;;;;;;;9.93;8.17;;;;;;;3.95;93.54;96422.34;5008379;28;20675;-73
2021/10/10 00:31:15;;;;;;;8.30;7.60;;;;;;;3.92;93.90;96431.25;5008199;28;20218;-74
2021/10/10 00:33:43;;;;;;;11.90;10.70;;;;;;;3.91;93.68;96433.97;5011208;28;20779;-73
2021/10/10 00:36:13;;;;;;;11.13;8.10;;;;;;;3.88;93.60;96431.63;5019994;28;20222;-73
2021/10/10 00:38:42;;;;;;;10.03;9.13;;;;;;;3.86;93.56;96429.16;5022381;28;20322;-72
2021/10/10 00:41:10;;;;;;;8.50;6.97;;;;;;;3.81;93.32;96433.06;5023082;28;20877;-72
2021/10/10 00:43:38;;;;;;;8.40;7.57;;;;;;;3.74;93.55;96429.28;5010113;28;21650;-72
2021/10/10 00:46:07;;;;;;;9.57;8.47;;;;;;;3.70;93.44;96424.31;5006116;28;20227;-71
2021/10/10 00:48:35;;;;;;;8.00;7.40;;;;;;;3.67;93.48;96424.56;5015517;28;20224;-73
2021/10/10 00:51:04;;;;;;;9.90;9.10;;;;;;;3.62;93.56;96421.47;5025950;28;20298;-73
2021/10/10 00:53:37;;;;;;;8.77;8.03;;;;;;;3.58;93.76;96427.91;5022079;28;20235;-73
2021/10/10 00:56:06;;;;;;;8.77;7.97;;;;;;;3.56;94.35;96415.91;5011033;28;20236;-73
2021/10/10 00:58:37;;;;;;;7.70;7.10;;;;;;;3.54;93.88;96429.09;5008627;28;21910;-74
2021/10/10 01:01:05;;;;;;;9.17;8.27;;;;;;;3.50;94.47;96422.47;5007545;28;20227;-73
2021/10/10 01:03:34;;;;;;;6.97;6.37;;;;;;;3.48;94.41;96413.94;5008195;28;20285;-72
2021/10/10 01:06:02;;;;;;;10.53;9.57;;;;;;;3.46;94.38;96425.44;5019548;28;20228;-73
2021/10/10 01:08:30;;;;;;;8.77;8.07;;;;;;;3.46;94.35;96426.25;5023609;28;20255;-72
2021/10/10 01:11:00;;;;;;;9.57;8.77;;;;;;;3.44;94.68;96417.72;5021511;28;20740;-73
2021/10/10 01:13:27;;;;;;;7.33;6.77;;;;;;;3.39;94.52;96417.28;5024416;28;20223;-71
2021/10/10 01:15:55;;;;;;;8.47;7.67;;;;;;;3.35;94.94;96415.84;5023913;28;20307;-72
2021/10/10 01:18:25;;;;;;;8.37;7.67;;;;;;;3.33;94.60;96420.34;5013740;28;20227;-72
2021/10/10 01:20:56;;;;;;;11.93;8.07;;;;;;;3.24;95.08;96410.66;5018994;28;20275;-72
2021/10/10 01:23:24;;;;;;;9.40;8.60;;;;;;;3.18;94.95;96416.34;5023738;28;20756;-73
2021/10/10 01:25:53;;;;;;;11.20;10.20;;;;;;;3.14;94.85;96408.75;5024647;28;20311;-72
2021/10/10 01:28:21;;;;;;;7.27;6.70;;;;;;;3.11;94.79;96401.19;5017582;28;20681;-72
2021/10/10 01:30:49;;;;;;;8.00;7.30;;;;;;;3.09;95.61;96400.44;5020789;28;20221;-73
2021/10/10 01:33:18;;;;;;;7.83;7.10;;;;;;;3.08;95.39;96400.56;5023707;28;20221;-73
2021/10/10 01:35:46;;;;;;;10.10;8.37;;;;;;;3.10;95.88;96398.69;5019455;28;20741;-72
2021/10/10 01:38:19;;;;;;;9.17;8.37;;;;;;;3.10;95.52;96398.69;5023143;28;20254;-73
2021/10/10 01:40:48;;;;;;;9.87;8.87;;;;;;;3.10;95.68;96402.09;5022071;28;20227;-73
2021/10/10 01:43:16;;;;;;;8.53;7.73;;;;;;;3.10;96.27;96402.09;5019184;28;20212;-72
2021/10/10 01:45:45;;;;;;;10.27;9.13;;;;;;;3.12;95.50;96392.41;5020832;28;20323;-73
2021/10/10 01:48:13;;;;;;;11.13;9.97;;;;;;;3.14;95.77;96387.91;5026722;28;20255;-72
2021/10/10 01:50:41;;;;;;;11.47;10.37;;;;;;;3.19;96.64;96391.91;5024491;28;20249;-72
2021/10/10 01:53:09;;;;;;;11.10;9.80;;;;;;;3.19;96.29;96394.53;5022907;28;20218;-73
2021/10/10 01:55:38;;;;;;;12.10;10.83;;;;;;;3.22;95.97;96383.88;5021314;28;20250;-74
2021/10/10 01:58:07;;;;;;;10.33;9.07;;;;;;;3.23;96.13;96388.13;5033755;28;20627;-72
2021/10/10 02:00:35;;;;;;;12.47;9.43;;;;;;;3.22;95.54;96376.03;5016625;28;20290;-72
2021/10/10 02:03:03;;;;;;;10.70;9.70;;;;;;;3.20;95.71;96383.13;5013631;28;20686;-72
2021/10/10 02:05:32;;;;;;;10.73;9.70;;;;;;;3.20;95.96;96378.78;5005621;28;20358;-73
2021/10/10 02:08:00;;;;;;;11.87;10.77;;;;;;;3.19;95.33;96381.47;5008584;28;20675;-73
2021/10/10 02:10:28;;;;;;;11.40;9.63;;;;;;;3.18;96.12;96382.44;5009139;28;20224;-73
2021/10/10 02:12:57;;;;;;;11.10;10.10;;;;;;;3.20;95.73;96390.97;5008980;28;20311;-73
2021/10/10 02:15:26;;;;;;;7.90;7.20;;;;;;;3.19;95.78;96392.75;5001132;28;20254;-73
2021/10/10 02:17:54;;;;;;;10.50;9.50;;;;;;;3.13;95.81;96388.84;5008807;28;20228;-72
2021/10/10 02:20:22;;;;;;;10.53;7.87;;;;;;;3.12;95.75;96387.19;5009913;28;20220;-73
2021/10/10 02:22:51;;;;;;;8.70;7.93;;;;;;;3.06;95.76;96382.44;5011726;28;20705;-72
2021/10/10 02:25:19;;;;;;;10.27;9.03;;;;;;;3.04;95.48;96384.34;5013242;28;20225;-73
2021/10/10 02:27:47;;;;;;;13.40;10.07;;;;;;;3.07;95.66;96380.66;5018300;28;20230;-72
2021/10/10 02:30:16;;;;;;;10.13;9.27;;;;;;;3.07;95.78;96378.88;5016855;28;20394;-72
2021/10/10 02:32:45;;;;;;;11.50;9.17;;;;;;;3.10;96.13;96386.47;5016877;28;20235;-74
2021/10/10 02:35:13;;;;;;;11.53;9.97;;;;;;;3.13;95.96;96385.41;5008055;28;20779;-74
2021/10/10 02:37:43;;;;;;;9.93;9.00;;;;;;;3.03;95.69;96387.91;5009891;28;20321;-72
2021/10/10 02:40:12;;;;;;;8.73;8.00;;;;;;;3.00;96.53;96388.13;5008276;28;20422;-73
2021/10/10 02:42:41;;;;;;;12.40;9.87;;;;;;;2.98;96.33;96390.03;5011077;28;20306;-74
2021/10/10 02:45:09;;;;;;;10.53;9.53;;;;;;;2.96;97.00;96381.50;5006844;28;20227;-72
2021/10/10 02:47:39;;;;;;;10.40;9.40;;;;;;;2.91;96.99;96377.59;5008066;28;20220;-74
2021/10/10 02:50:08;;;;;;;11.27;9.13;;;;;;;2.88;96.18;96391.69;5009058;28;20708;-74
2021/10/10 02:52:36;;;;;;;12.10;10.83;;;;;;;2.86;97.03;96385.78;5007983;28;20341;-74
2021/10/10 02:55:07;;;;;;;9.20;8.40;;;;;;;2.85;96.40;96384.13;5004654;28;20381;-72
2021/10/10 02:57:34;;;;;;;8.50;7.67;;;;;;;2.85;97.12;96384.13;5022624;28;20323;-73
2021/10/10 03:00:04;;;;;;;10.63;9.77;;;;;;;2.85;97.35;96381.53;5020977;28;20207;-73
2021/10/10 03:02:32;;;;;;;9.93;8.80;;;;;;;2.83;96.71;96375.56;5019220;28;20588;-72
2021/10/10 03:05:02;;;;;;;12.30;9.93;;;;;;;2.81;97.26;96372.25;5010371;28;20234;-74
2021/10/10 03:07:29;;;;;;;8.30;7.70;;;;;;;2.81;97.21;96372.25;5013533;28;20212;-72
2021/10/10 03:09:58;;;;;;;10.67;9.27;;;;;;;2.81;96.88;96372.25;5027195;28;20784;-72
2021/10/10 03:12:25;;;;;;;12.33;11.13;;;;;;;2.79;97.37;96369.78;5027074;28;20293;-72
2021/10/10 03:14:54;;;;;;;9.40;8.60;;;;;;;2.80;97.09;96365.41;5027500;28;20458;-73
2021/10/10 03:17:21;;;;;;;8.10;7.50;;;;;;;2.82;97.36;96360.88;5020089;28;20223;-74
2021/10/10 03:19:50;;;;;;;9.77;8.87;;;;;;;2.80;96.93;96365.41;5022019;28;20322;-72
2021/10/10 03:22:19;;;;;;;10.90;9.90;;;;;;;2.79;96.64;96358.53;5024161;28;20224;-72
2021/10/10 03:24:48;;;;;;;10.90;9.83;;;;;;;2.80;96.61;96366.22;5023619;28;20807;-72
2021/10/10 03:27:16;;;;;;;9.97;9.07;;;;;;;2.82;97.41;96364.31;5026581;28;20252;-72
2021/10/10 03:29:44;;;;;;;10.97;9.80;;;;;;;2.83;97.48;96367.75;5025824;28;20274;-72
2021/10/10 03:32:12;;;;;;;9.37;8.47;;;;;;;2.82;97.11;96364.31;5027979;28;20304;-73
2021/10/10 03:34:41;;;;;;;10.63;9.80;;;;;;;2.82;96.78;96363.50;5009951;28;20310;-73
2021/10/10 03:37:08;;;;;;;10.20;9.30;;;;;;;2.80;96.66;96361.00;5010027;28;20224;-73
2021/10/10 03:39:38;;;;;;;9.83;8.93;;;;;;;2.76;96.97;96358.78;5014739;28;20274;-72
2021/10/10 03:42:06;;;;;;;10.97;9.93;;;;;;;2.73;96.58;96354.59;5009799;28;20219;-72
2021/10/10 03:44:34;;;;;;;10.80;9.73;;;;;;;2.71;96.43;96361.72;5015044;28;20223;-73
2021/10/10 03:47:03;;;;;;;11.17;9.83;;;;;;;2.70;96.50;96364.44;5010364;28;21781;-72
2021/10/10 03:49:32;;;;;;;11.83;10.63;;;;;;;2.68;96.00;96363.75;5017246;28;20676;-72
2021/10/10 03:52:00;;;;;;;9.23;8.37;;;;;;;2.67;96.55;96364.69;5028444;28;20476;-73
2021/10/10 03:57:20;;;;;;;10.77;9.87;;;;;;;2.64;96.82;96359.69;5015673;28;20231;-73
2021/10/10 03:59:52;;;;;;;10.10;9.10;;;;;;;2.62;96.36;96366.81;5022206;28;20227;-73
2021/10/10 04:02:20;;;;;;;11.00;9.87;;;;;;;2.63;96.45;96366.69;5010522;28;20220;-74
2021/10/10 04:04:50;;;;;;;9.50;8.47;;;;;;;2.60;96.63;96364.34;5010110;28;20219;-73
2021/10/10 04:07:19;;;;;;;12.10;10.93;;;;;;;2.60;96.34;96363.50;5011626;28;20807;-72
2021/10/10 04:09:47;;;;;;;12.10;11.03;;;;;;;2.58;96.24;96374.06;5009867;28;20301;-73
2021/10/10 04:12:16;;;;;;;13.17;10.20;;;;;;;2.53;96.04;96369.16;5014870;28;20219;-72
2021/10/10 04:14:45;;;;;;;11.17;10.07;;;;;;;2.49;95.83;96370.38;5013356;28;20225;-72
2021/10/10 04:17:13;;;;;;;10.53;9.53;;;;;;;2.48;95.71;96370.50;5007199;28;20733;-74
2021/10/10 04:19:41;;;;;;;10.73;9.67;;;;;;;2.43;96.55;96370.81;5012345;28;20470;-74
2021/10/10 04:22:09;;;;;;;10.53;9.53;;;;;;;2.40;95.89;96368.47;5009161;28;20662;-73
2021/10/10 04:24:37;;;;;;;11.20;10.20;;;;;;;2.38;96.42;96362.53;5010427;28;20307;-72
2021/10/10 04:27:05;;;;;;;11.80;10.70;;;;;;;2.40;96.17;96363.25;5009737;28;20624;-74
2021/10/10 04:29:34;;;;;;;9.90;8.90;;;;;;;2.38;96.29;96359.94;5025483;28;20542;-73
2021/10/10 04:32:02;;;;;;;9.37;8.23;;;;;;;2.36;95.82;96369.63;5008302;28;21926;-74
2021/10/10 04:34:31;;;;;;;9.37;8.43;;;;;;;2.31;95.95;96363.94;5007716;28;20431;-73
2021/10/10 04:36:59;;;;;;;9.60;8.40;;;;;;;2.28;96.48;96359.78;5012602;28;20720;-73
2021/10/10 04:39:27;;;;;;;10.03;8.80;;;;;;;2.28;95.72;96359.78;5010905;28;20661;-73
2021/10/10 04:41:55;;;;;;;9.57;8.27;;;;;;;2.27;96.41;96357.28;5006629;28;20228;-73
2021/10/10 04:44:22;;;;;;;14.03;10.30;;;;;;;2.24;96.09;96354.94;5038180;28;20335;-72
2021/10/10 04:46:52;;;;;;;12.87;10.43;;;;;;;2.24;95.94;96353.16;5018578;28;20247;-71
2021/10/10 04:49:20;;;;;;;11.50;8.47;;;;;;;2.25;95.77;96360.03;5014510;28;20262;-72
2021/10/10 04:51:48;;;;;;;10.80;9.70;;;;;;;2.24;96.66;96352.31;5017646;28;20226;-73
2021/10/10 04:54:16;;;;;;;10.77;8.93;;;;;;;2.23;95.89;96361.91;5010178;28;20326;-72
2021/10/10 04:56:44;;;;;;;11.07;10.03;;;;;;;2.16;95.81;96352.91;5032157;28;20330;-72
2021/10/10 04:59:12;;;;;;;9.40;8.57;;;;;;;2.08;96.45;96367.44;5014455;28;20754;-73
2021/10/10 05:01:41;;;;;;;10.20;9.27;;;;;;;1.94;95.17;96365.88;5024534;28;20274;-73
2021/10/10 05:04:10;;;;;;;10.13;9.13;;;;;;;1.75;95.00;96366.41;5025199;28;20215;-70
2021/10/10 05:06:39;;;;;;;10.47;8.47;;;;;;;1.47;93.57;96366.75;5024048;28;20262;-70
2021/10/10 05:09:11;;;;;;;11.60;9.20;;;;;;;1.32;93.94;96374.69;5025014;28;20700;-69
2021/10/10 05:11:39;;;;;;;9.23;8.33;;;;;;;1.29;94.12;96374.91;5022537;28;20705;-67
2021/10/10 05:14:07;;;;;;;7.33;6.73;;;;;;;1.27;94.78;96378.53;5009622;28;20227;-67
2021/10/10 05:16:35;;;;;;;12.87;11.67;;;;;;;1.29;95.58;96374.09;5021360;28;20254;-66
2021/10/10 05:19:03;;;;;;;9.10;8.30;;;;;;;1.33;95.98;96375.53;5016937;28;20303;-66
2021/10/10 05:21:33;;;;;;;9.10;8.33;;;;;;;1.39;96.31;96375.09;5020593;28;20300;-66
2021/10/10 05:24:01;;;;;;;9.13;8.37;;;;;;;1.45;95.97;96379.00;5026529;28;20799;-67
2021/10/10 05:26:29;;;;;;;13.10;10.10;;;;;;;1.48;96.29;96376.19;5025094;28;20258;-66
2021/10/10 05:28:57;;;;;;;10.37;9.43;;;;;;;1.52;96.94;96370.66;5020903;28;20654;-67
2021/10/10 05:31:25;;;;;;;13.23;10.70;;;;;;;1.57;96.22;96378.13;5024276;28;20243;-67
2021/10/10 05:33:52;;;;;;;11.90;10.63;;;;;;;1.60;96.16;96375.31;5025397;28;20326;-67
2021/10/10 05:36:20;;;;;;;10.67;9.73;;;;;;;1.60;96.29;96378.72;5022313;28;20306;-67
2021/10/10 05:38:50;;;;;;;14.73;10.97;;;;;;;1.61;96.14;96384.75;5025694;28;20311;-67
2021/10/10 05:41:17;;;;;;;8.97;8.27;;;;;;;1.51;95.14;96381.16;5022821;28;20744;-67
2021/10/10 05:43:45;;;;;;;7.17;6.63;;;;;;;1.38;94.88;96384.66;5024135;28;20656;-67
2021/10/10 05:46:14;;;;;;;7.03;6.50;;;;;;;1.30;94.30;96396.56;5018569;28;20307;-67
2021/10/10 05:48:41;;;;;;;8.03;7.33;;;;;;;1.23;94.43;96396.16;5024508;28;20253;-67
2021/10/10 05:51:10;;;;;;;5.80;5.30;;;;;;;1.20;94.52;96390.34;5022292;28;20736;-67
2021/10/10 05:53:39;;;;;;;6.27;5.90;;;;;;;1.20;94.34;96401.56;5022026;28;20306;-67
2021/10/10 05:56:09;;;;;;;6.63;6.23;;;;;;;1.22;94.28;96398.84;5010302;28;20662;-67
2021/10/10 05:58:42;;;;;;;5.23;4.93;;;;;;;1.22;94.21;96399.69;5006613;28;20311;-65
2021/10/10 06:01:09;;;;;;;5.83;5.30;;;;;;;1.21;95.30;96400.63;5008402;28;20225;-66
2021/10/10 06:03:38;;;;;;;6.40;5.80;;;;;;;1.23;94.78;96396.16;5018221;28;20231;-66
2021/10/10 06:06:06;;;;;;;7.63;7.03;;;;;;;1.32;94.31;96405.06;5018763;28;20223;-66
2021/10/10 06:08:34;;;;;;;7.87;7.27;;;;;;;1.40;94.08;96400.97;5022214;28;20227;-67
2021/10/10 06:11:03;;;;;;;8.87;7.77;;;;;;;1.53;94.39;96403.53;5024660;28;20684;-67
2021/10/10 06:13:47;;;;;;;7.93;7.20;;;;;;;1.67;94.57;96399.94;5024062;28;20223;-67
2021/10/10 06:16:15;;;;;;;11.93;8.60;;;;;;;1.82;94.53;96404.00;5024065;28;20289;-67
2021/10/10 06:18:43;;;;;;;11.63;10.53;;;;;;;1.95;94.76;96396.97;5023723;28;20255;-67
2021/10/10 06:21:11;;;;;;;11.30;10.20;;;;;;;2.11;94.54;96403.66;5018887;28;20470;-66
2021/10/10 06:23:39;;;;;;;12.17;10.97;;;;;;;2.22;94.78;96406.31;5023156;28;20698;-67
2021/10/10 06:26:07;;;;;;;11.80;10.73;;;;;;;2.36;95.37;96400.03;5018633;28;20329;-67
2021/10/10 06:28:35;;;;;;;12.83;11.53;;;;;;;2.49;95.43;96406.00;5023737;28;20231;-66
2021/10/10 06:31:05;;;;;;;11.90;10.63;;;;;;;2.62;95.33;96408.50;5021562;28;20892;-67
2021/10/10 06:33:32;;;;;;;11.33;9.93;;;;;;;2.74;95.35;96407.56;5021612;28;20314;-67
2021/10/10 06:36:00;;;;;;;11.87;10.60;;;;;;;2.87;94.90;96413.50;5022818;28;20231;-68
2021/10/10 06:38:28;;;;;;;13.13;11.67;;;;;;;3.01;95.15;96415.03;5018380;28;20266;-67
2021/10/10 06:40:56;;;;;;;15.57;11.27;;;;;;;3.12;95.16;96418.50;5023442;28;20212;-68
2021/10/10 06:43:25;;;;;;;11.57;10.47;;;;;;;3.23;95.06;96415.03;5023901;28;20220;-67
2021/10/10 06:45:53;;;;;;;10.13;9.23;;;;;;;3.37;95.02;96416.53;5018652;28;20315;-67
2021/10/10 06:48:22;;;;;;;10.27;9.23;;;;;;;3.49;94.29;96420.81;5024473;28;20604;-67
2021/10/10 06:50:50;;;;;;;14.80;12.20;;;;;;;3.63;93.59;96422.31;5018745;28;20273;-67
2021/10/10 06:53:19;;;;;;;12.33;11.10;;;;;;;3.75;93.53;96420.50;5017607;28;20755;-68
2021/10/10 06:55:46;;;;;;;11.50;10.40;;;;;;;3.89;93.35;96422.84;5023612;28;20251;-68
2021/10/10 06:58:14;;;;;;;23.03;11.80;;;;;;;4.05;92.84;96428.47;5020155;28;20220;-68
2021/10/10 07:00:42;;;;;;;13.37;12.00;;;;;;;4.19;92.43;96427.34;5021925;28;20294;-68
2021/10/10 07:03:10;;;;;;;14.23;11.30;;;;;;;4.33;91.95;96427.06;5023145;28;20224;-68
2021/10/10 07:05:39;;;;;;;13.77;12.37;;;;;;;4.44;90.71;96428.78;5021652;28;20240;-67
2021/10/10 07:08:07;;;;;;;13.53;11.30;;;;;;;4.53;90.77;96428.84;5024951;28;20266;-67
2021/10/10 07:10:36;;;;;;;12.37;11.30;;;;;;;4.68;90.86;96431.97;5009535;28;20965;-68
2021/10/10 07:13:04;;;;;;;12.47;10.73;;;;;;;4.82;90.51;96429.00;5002345;28;20219;-67
2021/10/10 07:15:33;;;;;;;12.90;11.43;;;;;;;4.95;90.10;96420.13;5018231;28;20237;-68
2021/10/10 07:18:02;;;;;;;13.73;12.33;;;;;;;5.10;90.01;96418.81;5017542;28;20773;-68
2021/10/10 07:20:44;;;;;;;11.27;10.20;;;;;;;5.24;89.49;96421.09;5021852;28;21803;-67
2021/10/10 07:23:27;;;;;;;13.93;11.13;;;;;;;5.38;89.35;96425.09;5022878;28;20243;-68
2021/10/10 07:25:56;;;;;;;12.40;11.23;;;;;;;5.53;88.85;96429.03;5018931;28;20239;-67
2021/10/10 07:28:24;;;;;;;14.00;10.80;;;;;;;5.63;88.19;96423.81;5022381;28;20220;-68
2021/10/10 07:30:52;;;;;;;12.70;11.30;;;;;;;5.77;87.92;96418.19;5019590;28;20286;-67
2021/10/10 07:33:20;;;;;;;20.07;12.90;;;;;;;5.86;86.99;96417.38;5022325;28;20590;-68
2021/10/10 07:35:49;;;;;;;13.80;12.03;;;;;;;6.00;86.87;96426.66;5017117;28;20227;-68
2021/10/10 07:38:18;;;;;;;11.83;10.73;;;;;;;6.17;86.09;96423.34;5024271;28;20227;-68
2021/10/10 07:40:47;;;;;;;18.87;13.17;;;;;;;6.36;85.64;96422.53;5014328;28;20258;-67
2021/10/10 07:43:15;;;;;;;11.87;10.87;;;;;;;6.35;84.89;96427.91;5022802;28;20222;-68
2021/10/10 07:45:43;;;;;;;14.77;12.93;;;;;;;6.34;84.67;96429.69;5015668;28;20266;-68
2021/10/10 07:48:12;;;;;;;15.87;14.30;;;;;;;6.37;84.04;96428.59;5024515;28;20669;-68
2021/10/10 07:50:43;;;;;;;13.10;12.00;;;;;;;6.49;84.14;96427.47;5026519;28;20226;-68
2021/10/10 07:53:12;;;;;;;12.53;11.30;;;;;;;6.53;84.04;96429.69;5026166;28;20243;-68
2021/10/10 07:55:41;;;;;;;17.13;11.70;;;;;;;6.66;83.85;96423.31;5024197;28;20348;-68
2021/10/10 07:58:09;;;;;;;13.70;12.30;;;;;;;6.75;82.93;96430.31;5024387;28;20676;-68
2021/10/10 08:00:39;;;;;;;12.83;11.50;;;;;;;6.82;82.78;96437.50;5023446;28;20229;-68
2021/10/10 08:03:07;;;;;;;12.97;11.63;;;;;;;6.97;83.53;96442.31;5021881;28;20239;-68
2021/10/10 08:05:40;;;;;;;16.07;14.20;;;;;;;7.21;83.19;96429.50;5038892;28;20231;-68
2021/10/10 08:08:08;;;;;;;15.40;13.77;;;;;;;7.44;82.23;96435.22;5013027;28;20310;-68
2021/10/10 08:10:37;;;;;;;12.67;11.53;;;;;;;7.47;80.36;96432.28;5026757;28;20223;-68
2021/10/10 08:13:08;;;;;;;18.47;14.23;;;;;;;7.50;80.42;96429.41;5019306;28;20649;-67
2021/10/10 08:15:36;;;;;;;13.73;12.37;;;;;;;7.39;79.65;96429.56;5020102;28;20882;-68
2021/10/10 08:18:05;;;;;;;13.47;12.20;;;;;;;7.46;79.78;96430.66;5016976;28;20272;-68
2021/10/10 08:20:34;;;;;;;13.37;12.03;;;;;;;7.60;79.99;96430.19;5017557;28;20234;-68
2021/10/10 08:23:02;;;;;;;13.83;12.47;;;;;;;7.82;79.29;96418.41;5019122;28;20625;-67
2021/10/10 08:25:32;;;;;;;12.60;11.53;;;;;;;7.95;78.45;96424.16;5016026;28;20632;-68
2021/10/10 08:28:00;;;;;;;12.67;11.43;;;;;;;7.92;77.55;96426.25;5016637;28;20248;-68
2021/10/10 08:30:31;;;;;;;15.03;13.37;;;;;;;7.98;78.00;96428.28;5020682;28;20688;-68
2021/10/10 08:32:59;;;;;;;13.97;12.73;;;;;;;8.10;77.26;96426.25;5026020;28;20270;-68
2021/10/10 08:35:27;;;;;;;15.87;13.27;;;;;;;8.34;77.96;96428.31;5025188;28;20219;-68
2021/10/10 08:37:55;;;;;;;14.53;13.07;;;;;;;8.42;76.80;96425.78;5026140;28;20732;-68
2021/10/10 08:40:23;;;;;;;16.57;14.83;;;;;;;8.52;76.65;96426.50;5024352;28;20287;-67
2021/10/10 08:42:52;;;;;;;15.97;14.47;;;;;;;8.74;75.81;96435.72;5026120;28;20519;-68
2021/10/10 08:45:24;;;;;;;17.77;15.93;;;;;;;8.84;74.87;96437.25;5019482;28;20244;-68
2021/10/10 08:47:54;;;;;;;16.40;14.37;;;;;;;8.92;75.37;96433.03;5016561;28;20224;-68
2021/10/10 08:50:24;;;;;;;31.47;27.17;;;;;;;9.00;74.21;96435.72;5020329;28;20679;-68
2021/10/10 08:52:55;;;;;;;19.00;16.90;;;;;;;9.16;74.35;96446.38;5025281;28;20295;-68
2021/10/10 08:55:25;;;;;;;14.67;13.20;;;;;;;9.33;73.40;96439.41;5018229;28;20231;-67
2021/10/10 08:57:54;;;;;;;13.40;12.20;;;;;;;9.55;73.49;96440.63;5016475;28;20225;-69
2021/10/10 09:00:28;;;;;;;22.40;13.93;;;;;;;9.86;72.52;96438.28;5011502;28;20294;-67
2021/10/10 09:02:58;;;;;;;14.70;13.30;;;;;;;9.63;71.74;96448.59;5018126;28;20224;-68
2021/10/10 09:05:27;;;;;;;16.07;14.50;;;;;;;9.67;71.38;96449.91;5022882;28;20223;-69
2021/10/10 09:07:55;;;;;;;15.67;14.00;;;;;;;9.90;71.81;96440.44;5018027;28;20301;-67
2021/10/10 09:10:27;;;;;;;14.03;12.80;;;;;;;10.13;70.77;96445.09;5015005;28;20692;-68
2021/10/10 09:13:05;;;;;;;15.90;14.60;;;;;;;10.64;70.87;96443.22;5022418;28;20273;-67
2021/10/10 09:15:35;;;;;;;15.23;13.83;;;;;;;11.05;69.00;96436.91;5019459;28;20227;-68
2021/10/10 09:18:06;;;;;;;18.23;14.07;;;;;;;11.28;67.55;96425.66;5019358;28;20215;-68
2021/10/10 09:20:37;;;;;;;13.70;12.27;;;;;;;11.35;66.24;96431.91;5017640;28;20254;-70
2021/10/10 09:23:07;;;;;;;13.03;11.73;;;;;;;11.69;66.83;96435.06;5022624;28;20223;-70
2021/10/10 09:25:36;;;;;;;15.17;11.80;;;;;;;12.13;66.26;96421.34;5020961;28;20230;-70
2021/10/10 09:28:20;;;;;;;13.23;11.97;;;;;;;12.61;64.83;96421.97;5024119;28;20763;-70
2021/10/10 09:30:50;;;;;;;11.67;10.67;;;;;;;13.19;63.74;96425.81;5019105;28;20232;-71
2021/10/10 09:33:22;;;;;;;13.47;12.23;;;;;;;13.69;63.06;96408.34;5023790;28;20307;-70
2021/10/10 09:36:02;;;;;;;13.40;12.23;;;;;;;14.20;60.73;96416.31;5016122;28;20229;-70
2021/10/10 09:38:30;;;;;;;15.00;13.40;;;;;;;14.76;60.01;96411.16;5015215;28;20314;-70
2021/10/10 09:41:14;;;;;;;16.77;13.43;;;;;;;14.96;58.59;96414.78;5022209;28;20252;-71
2021/10/10 09:44:10;;;;;;;12.27;10.70;;;;;;;14.85;57.58;96415.31;5020616;28;20302;-70
2021/10/10 09:46:41;;;;;;;14.43;13.17;;;;;;;14.55;58.03;96419.16;4992666;28;20263;-71
2021/10/10 09:49:25;;;;;;;13.63;12.43;;;;;;;14.89;58.53;96419.22;5020792;28;20223;-70
2021/10/10 09:51:54;;;;;;;11.87;10.87;;;;;;;15.59;59.22;96412.97;5032070;28;20255;-71
2021/10/10 09:54:23;;;;;;;11.33;10.10;;;;;;;16.07;56.48;96407.66;5016667;28;20215;-70
2021/10/10 09:57:05;;;;;;;11.90;10.67;;;;;;;16.41;55.81;96411.25;5018127;28;20222;-70
2021/10/10 09:59:33;;;;;;;11.77;10.80;;;;;;;16.90;54.88;96410.09;5022358;28;20655;-70
2021/10/10 10:02:02;;;;;;;10.23;9.23;;;;;;;17.42;52.53;96405.75;5019704;28;20231;-71
2021/10/10 10:04:41;;;;;;;10.40;9.40;;;;;;;17.38;51.61;96408.03;5016192;28;22826;-71
2021/10/10 10:07:10;;;;;;;11.47;10.37;;;;;;;17.77;51.72;96401.00;5013703;28;20285;-71
2021/10/10 10:09:38;;;;;;;11.27;10.30;;;;;;;17.72;51.80;96401.59;5020801;28;20239;-71
2021/10/10 10:12:07;;;;;;;11.90;10.80;;;;;;;17.39;50.85;96400.84;5023063;28;20247;-70
2021/10/10 10:14:35;;;;;;;12.93;11.73;;;;;;;17.16;52.05;96404.75;5018426;28;20259;-71
2021/10/10 10:17:05;;;;;;;10.87;9.77;;;;;;;17.44;51.86;96395.69;5021428;28;20600;-70
2021/10/10 10:19:36;;;;;;;10.93;9.83;;;;;;;17.52;51.36;96393.63;5023567;28;20281;-70
2021/10/10 10:22:08;;;;;;;12.47;11.30;;;;;;;17.48;50.73;96392.41;5007309;28;20289;-70
2021/10/10 10:24:39;;;;;;;12.07;9.50;;;;;;;17.65;51.72;96387.44;5005634;28;20334;-71
2021/10/10 10:27:07;;;;;;;11.47;10.00;;;;;;;18.10;50.05;96395.50;5004342;28;20223;-71
2021/10/10 10:29:39;;;;;;;10.90;9.00;;;;;;;18.27;50.23;96391.28;5007307;28;20212;-71
2021/10/10 10:32:09;;;;;;;11.90;9.40;;;;;;;18.46;48.62;96395.69;5019478;28;20310;-71
2021/10/10 10:34:39;;;;;;;9.37;8.70;;;;;;;18.86;49.55;96394.66;5006902;28;20220;-71
2021/10/10 10:37:09;;;;;;;17.97;8.80;;;;;;;19.15;47.14;96387.81;5018609;28;20310;-71
2021/10/10 10:39:40;;;;;;;10.13;9.10;;;;;;;18.64;47.60;96394.16;5023036;28;20223;-71
2021/10/10 10:42:39;;;;;;;9.93;9.10;;;;;;;18.75;48.03;96404.22;5021790;28;20212;-71
2021/10/10 10:45:19;;;;;;;9.23;8.07;;;;;;;19.29;48.03;96397.34;5004717;28;20357;-71
2021/10/10 10:47:48;;;;;;;9.97;9.13;;;;;;;19.74;47.20;96392.59;5012261;28;20676;-71
2021/10/10 10:50:22;;;;;;;9.67;8.83;;;;;;;19.26;47.37;96400.47;5038999;28;20271;-71
2021/10/10 10:53:01;;;;;;;10.77;9.70;;;;;;;18.72;48.18;96400.09;5024274;28;20235;-71
2021/10/10 10:55:31;;;;;;;13.93;8.67;;;;;;;18.13;49.99;96395.09;5020650;28;20251;-71
2021/10/10 10:58:01;;;;;;;9.60;8.63;;;;;;;17.80;50.46;96411.22;5020682;28;20234;-70
2021/10/10 11:00:32;;;;;;;8.87;8.03;;;;;;;17.48;50.98;96396.94;5007631;28;20223;-71
2021/10/10 11:03:09;;;;;;;9.13;8.00;;;;;;;17.35;51.49;96397.75;5004429;28;20223;-71
2021/10/10 11:05:41;;;;;;;11.37;9.57;;;;;;;17.17;51.57;96395.72;5005684;28;20235;-71
2021/10/10 11:08:30;;;;;;;11.57;10.47;;;;;;;17.32;51.80;96388.34;5014168;28;20266;-71
2021/10/10 11:11:08;;;;;;;8.53;7.93;;;;;;;17.20;51.06;96395.34;5017035;28;20223;-70
2021/10/10 11:13:41;;;;;;;9.30;7.87;;;;;;;16.79;53.20;96398.22;5017095;28;20248;-70
2021/10/10 11:16:11;;;;;;;8.80;7.90;;;;;;;16.44;53.33;96394.84;5014951;28;20231;-71
2021/10/10 11:18:44;;;;;;;11.13;9.47;;;;;;;16.61;53.14;96392.63;5004549;28;20227;-71
2021/10/10 11:21:15;;;;;;;8.63;8.03;;;;;;;16.61;52.62;96396.13;5008230;28;20231;-71
2021/10/10 11:23:44;;;;;;;8.37;7.77;;;;;;;16.66;52.76;96391.00;5011390;28;20227;-71
2021/10/10 11:26:13;;;;;;;10.53;9.63;;;;;;;16.74;52.65;96393.50;5022011;28;20227;-70
2021/10/10 11:28:44;;;;;;;8.83;8.03;;;;;;;17.08;50.83;96386.31;5006760;28;20700;-70
2021/10/10 11:31:15;;;;;;;8.93;8.17;;;;;;;17.20;51.87;96384.66;5006944;28;20305;-71
2021/10/10 11:33:45;;;;;;;10.80;8.90;;;;;;;17.31;50.82;96377.88;5008250;28;20995;-71
2021/10/10 11:36:16;;;;;;;7.23;6.67;;;;;;;17.13;50.91;96373.19;5023883;28;20713;-71
2021/10/10 11:38:49;;;;;;;7.40;6.80;;;;;;;16.98;52.34;96375.25;5025716;28;20219;-71
2021/10/10 11:41:17;;;;;;;9.03;8.33;;;;;;;16.91;51.91;96385.91;5026862;28;20320;-71
2021/10/10 11:43:56;;;;;;;8.20;7.43;;;;;;;16.82;51.62;96380.97;5025864;28;20300;-71
2021/10/10 11:46:25;;;;;;;15.63;9.23;;;;;;;16.61;53.04;96369.47;5026189;28;20310;-70